Time;durP1;ratioP1;P1;durP2;ratioP2;P2;SDS_P1;SDS_P2;PMS_P1;PMS_P2;Temp;Humidity;BMP_temperature;BMP_pressure;BME280_temperature;BME280_humidity;BME280_pressure;Samples;Min_cycle;Max_cycle;Signal;HPM_P1;HPM_P2
2022/07/04 00:01:01;;;;;;;29.45;26.55;;;;;;;;;;5052207;28;20064;-77
2022/07/04 00:03:27;;;;;;;26.23;23.60;;;;;;;;;;5052309;28;20036;-77
2022/07/04 00:05:53;;;;;;;20.85;18.85;;;;;;;;;;5052018;28;20024;-77
2022/07/04 00:08:19;;;;;;;22.27;20.17;;;;;;;;;;5052042;28;20021;-77
2022/07/04 00:10:45;;;;;;;13.98;12.57;;;;;;;;;;5051858;28;20072;-77
2022/07/04 00:13:13;;;;;;;13.27;12.05;;;;;;;;;;5051941;28;20080;-77
2022/07/04 00:15:39;;;;;;;15.73;12.00;;;;;;;;;;5051652;28;20035;-77
2022/07/04 00:18:05;;;;;;;12.60;11.43;;;;;;;;;;5052274;28;20420;-77
2022/07/04 00:20:31;;;;;;;14.43;13.13;;;;;;;;;;5052229;28;20017;-76
2022/07/04 00:22:57;;;;;;;13.75;12.45;;;;;;;;;;5052003;28;20033;-76
2022/07/04 00:25:23;;;;;;;13.05;11.80;;;;;;;;;;5051899;28;20037;-76
2022/07/04 00:27:49;;;;;;;11.73;10.75;;;;;;;;;;5051780;28;20479;-76
2022/07/04 00:30:16;;;;;;;11.20;10.20;;;;;;;;;;5051901;28;20120;-78
2022/07/04 00:32:42;;;;;;;12.50;11.45;;;;;;;;;;5051768;28;20029;-77
2022/07/04 00:35:08;;;;;;;11.32;10.32;;;;;;;;;;5052092;28;20032;-78
2022/07/04 00:37:34;;;;;;;12.23;11.05;;;;;;;;;;5052091;28;20467;-77
2022/07/04 00:40:00;;;;;;;12.32;11.25;;;;;;;;;;5051508;28;20056;-77
2022/07/04 00:42:26;;;;;;;12.05;11.02;;;;;;;;;;5052012;28;20071;-78
2022/07/04 00:44:55;;;;;;;11.63;10.63;;;;;;;;;;5054772;28;20464;-77
2022/07/04 00:47:21;;;;;;;12.02;11.05;;;;;;;;;;5055912;28;20539;-77
2022/07/04 00:49:47;;;;;;;14.75;13.25;;;;;;;;;;5055611;28;20044;-77
2022/07/04 00:52:14;;;;;;;12.10;11.10;;;;;;;;;;5055819;28;20041;-77
2022/07/04 00:54:41;;;;;;;12.57;11.50;;;;;;;;;;5055813;28;20523;-78
2022/07/04 00:57:07;;;;;;;11.45;10.55;;;;;;;;;;5055553;28;20487;-77
2022/07/04 00:59:33;;;;;;;12.38;11.27;;;;;;;;;;5055923;28;20025;-77
2022/07/04 01:01:59;;;;;;;12.52;11.40;;;;;;;;;;5055241;28;20029;-77
2022/07/04 01:04:25;;;;;;;12.05;10.98;;;;;;;;;;5055702;28;20021;-77
2022/07/04 01:06:52;;;;;;;12.75;11.68;;;;;;;;;;5055374;28;20055;-77
2022/07/04 01:09:19;;;;;;;12.90;11.80;;;;;;;;;;5017604;28;20052;-77
2022/07/04 01:11:45;;;;;;;12.45;11.25;;;;;;;;;;5035505;28;20546;-77
2022/07/04 01:14:11;;;;;;;13.80;12.70;;;;;;;;;;5033742;28;20080;-77
2022/07/04 01:16:37;;;;;;;11.80;10.82;;;;;;;;;;5035443;28;20052;-77
2022/07/04 01:19:03;;;;;;;12.38;11.38;;;;;;;;;;5035074;28;20038;-77
2022/07/04 01:21:31;;;;;;;12.35;11.35;;;;;;;;;;5035475;28;20025;-77
2022/07/04 01:23:57;;;;;;;13.02;11.93;;;;;;;;;;5034738;28;20079;-77
2022/07/04 01:26:23;;;;;;;11.98;10.95;;;;;;;;;;5035419;28;20507;-77
2022/07/04 01:28:49;;;;;;;11.95;10.85;;;;;;;;;;5035198;28;20056;-77
2022/07/04 01:31:15;;;;;;;11.45;10.43;;;;;;;;;;5034754;28;20472;-77
2022/07/04 01:33:41;;;;;;;10.98;9.98;;;;;;;;;;5035078;28;20033;-78
2022/07/04 01:36:08;;;;;;;11.60;10.40;;;;;;;;;;5034804;28;20357;-78
2022/07/04 01:38:34;;;;;;;10.95;10.05;;;;;;;;;;5034974;28;20040;-77
2022/07/04 01:41:00;;;;;;;12.30;11.10;;;;;;;;;;5034822;28;20447;-77
2022/07/04 01:43:26;;;;;;;11.30;10.35;;;;;;;;;;5035037;28;20021;-77
2022/07/04 01:45:52;;;;;;;12.52;11.27;;;;;;;;;;5034780;28;20480;-77
2022/07/04 01:48:18;;;;;;;11.68;10.70;;;;;;;;;;5034733;28;20025;-77
2022/07/04 01:50:44;;;;;;;12.13;11.02;;;;;;;;;;5034710;28;20037;-77
2022/07/04 01:53:11;;;;;;;11.45;10.55;;;;;;;;;;5034558;28;20503;-78
2022/07/04 01:55:37;;;;;;;11.73;10.20;;;;;;;;;;5033481;28;20036;-77
2022/07/04 01:58:03;;;;;;;12.27;11.25;;;;;;;;;;5034823;28;20039;-77
2022/07/04 02:03:14;;;;;;;12.25;11.25;;;;;;;;;;5034801;28;20124;-77
2022/07/04 02:05:40;;;;;;;11.48;10.50;;;;;;;;;;5034630;28;20029;-77
2022/07/04 02:08:07;;;;;;;12.40;11.30;;;;;;;;;;5034035;28;20108;-77
2022/07/04 02:10:33;;;;;;;11.15;10.25;;;;;;;;;;5053763;28;20500;-77
2022/07/04 02:13:02;;;;;;;11.40;10.35;;;;;;;;;;5054315;28;20468;-77
2022/07/04 02:15:35;;;;;;;11.18;10.18;;;;;;;;;;5054457;28;20878;-77
2022/07/04 02:18:02;;;;;;;11.80;10.77;;;;;;;;;;5053923;28;20086;-77
2022/07/04 02:20:28;;;;;;;11.63;10.65;;;;;;;;;;5054347;28;20025;-77
2022/07/04 02:22:55;;;;;;;12.05;10.88;;;;;;;;;;5053843;28;20017;-77
2022/07/04 02:25:21;;;;;;;12.07;10.98;;;;;;;;;;5054187;28;20025;-77
2022/07/04 02:27:47;;;;;;;11.55;10.65;;;;;;;;;;5054120;28;20033;-77
2022/07/04 02:30:13;;;;;;;11.10;10.20;;;;;;;;;;5053565;28;20033;-77
2022/07/04 02:32:40;;;;;;;11.52;10.43;;;;;;;;;;5054091;28;20052;-77
2022/07/04 02:35:07;;;;;;;11.40;10.50;;;;;;;;;;5053800;28;20028;-77
2022/07/04 02:37:33;;;;;;;12.82;11.65;;;;;;;;;;5053901;28;20111;-77
2022/07/04 02:39:59;;;;;;;11.93;10.93;;;;;;;;;;5053571;28;20060;-77
2022/07/04 02:42:29;;;;;;;12.20;11.15;;;;;;;;;;5036189;28;20025;-77
2022/07/04 02:44:56;;;;;;;13.45;11.13;;;;;;;;;;5053547;28;20075;-78
2022/07/04 02:47:22;;;;;;;11.50;10.50;;;;;;;;;;5053811;28;20431;-77
2022/07/04 02:49:48;;;;;;;12.57;11.30;;;;;;;;;;5035712;28;20385;-77
2022/07/04 02:52:15;;;;;;;13.02;11.00;;;;;;;;;;5053260;28;20480;-77
2022/07/04 02:54:41;;;;;;;12.05;10.95;;;;;;;;;;5053553;28;20071;-77
2022/07/04 02:57:08;;;;;;;12.65;11.65;;;;;;;;;;5053156;28;20025;-77
2022/07/04 02:59:34;;;;;;;12.20;11.20;;;;;;;;;;5053422;28;20029;-77
2022/07/04 03:02:00;;;;;;;11.88;10.77;;;;;;;;;;5053160;28;20048;-78
2022/07/04 03:04:26;;;;;;;12.80;11.70;;;;;;;;;;5053400;28;20100;-77
2022/07/04 03:06:52;;;;;;;16.42;14.82;;;;;;;;;;5053082;28;20079;-77
2022/07/04 03:09:18;;;;;;;14.52;12.60;;;;;;;;;;5052788;28;20061;-77
2022/07/04 03:11:45;;;;;;;12.60;11.43;;;;;;;;;;5053320;28;20036;-77
2022/07/04 03:14:12;;;;;;;12.35;11.13;;;;;;;;;;5052833;28;20036;-77
2022/07/04 03:16:38;;;;;;;13.13;11.38;;;;;;;;;;5053205;28;20051;-77
2022/07/04 03:19:04;;;;;;;15.70;12.48;;;;;;;;;;5052841;28;20383;-77
2022/07/04 03:21:30;;;;;;;12.60;11.40;;;;;;;;;;5052982;28;20059;-77
2022/07/04 03:23:59;;;;;;;13.45;11.55;;;;;;;;;;5052882;28;20568;-77
2022/07/04 03:26:26;;;;;;;13.98;12.10;;;;;;;;;;5052656;28;20029;-77
2022/07/04 03:28:53;;;;;;;13.27;11.98;;;;;;;;;;5052818;28;20025;-77
2022/07/04 03:31:19;;;;;;;13.00;11.38;;;;;;;;;;5052490;28;20122;-77
2022/07/04 03:33:45;;;;;;;12.63;11.43;;;;;;;;;;5052576;28;20171;-77
2022/07/04 03:36:11;;;;;;;14.07;11.77;;;;;;;;;;5052275;28;20066;-77
2022/07/04 03:38:37;;;;;;;13.07;11.77;;;;;;;;;;5052826;28;20036;-77
2022/07/04 03:41:03;;;;;;;12.80;11.63;;;;;;;;;;5052452;28;20101;-78
2022/07/04 03:43:29;;;;;;;14.30;12.93;;;;;;;;;;5052178;28;20107;-78
2022/07/04 03:45:55;;;;;;;13.45;12.30;;;;;;;;;;5052631;28;20045;-78
2022/07/04 03:48:21;;;;;;;14.48;13.10;;;;;;;;;;5052243;28;20100;-76
2022/07/04 03:50:47;;;;;;;12.27;11.27;;;;;;;;;;5052253;28;20040;-77
2022/07/04 03:53:15;;;;;;;12.60;11.60;;;;;;;;;;5051986;28;20037;-77
2022/07/04 03:55:41;;;;;;;12.07;11.05;;;;;;;;;;5052352;28;20021;-77
2022/07/04 03:58:08;;;;;;;12.40;11.30;;;;;;;;;;5051814;28;20067;-77
2022/07/04 04:00:34;;;;;;;12.98;11.60;;;;;;;;;;5051941;28;20047;-77
2022/07/04 04:05:25;;;;;;;12.90;11.73;;;;;;;;;;5052059;28;20033;-77
2022/07/04 04:05:49;;;;;;;14.38;13.15;;;;;;;;;;5052092;28;20025;-77
2022/07/04 04:08:15;;;;;;;15.55;14.20;;;;;;;;;;5051516;28;20052;-77
2022/07/04 04:10:42;;;;;;;14.35;13.05;;;;;;;;;;5052406;28;20041;-78
2022/07/04 04:13:08;;;;;;;15.23;14.02;;;;;;;;;;5051761;28;20373;-77
2022/07/04 04:15:34;;;;;;;15.38;14.07;;;;;;;;;;5052160;28;20535;-77
2022/07/04 04:18:01;;;;;;;15.23;13.82;;;;;;;;;;5051255;28;20029;-77
2022/07/04 04:20:27;;;;;;;15.50;14.10;;;;;;;;;;5051684;28;20036;-77
2022/07/04 04:22:53;;;;;;;15.07;13.52;;;;;;;;;;5051887;28;20511;-77
2022/07/04 04:25:19;;;;;;;15.00;13.50;;;;;;;;;;5051818;28;20032;-77
2022/07/04 04:27:45;;;;;;;13.73;12.32;;;;;;;;;;5034121;28;20387;-78
2022/07/04 04:30:11;;;;;;;79.32;72.63;;;;;;;;;;5051542;28;20075;-77
2022/07/04 04:32:37;;;;;;;17.40;14.15;;;;;;;;;;5051876;28;20037;-77
2022/07/04 04:35:03;;;;;;;16.30;14.90;;;;;;;;;;5051656;28;20028;-77
2022/07/04 04:37:30;;;;;;;12.65;11.43;;;;;;;;;;5051600;28;20361;-77
2022/07/04 04:39:56;;;;;;;13.30;12.05;;;;;;;;;;5033949;28;20086;-78
2022/07/04 04:42:22;;;;;;;12.52;11.52;;;;;;;;;;5051510;28;20032;-78
2022/07/04 04:44:48;;;;;;;12.32;11.35;;;;;;;;;;5051954;28;20021;-78
2022/07/04 04:47:14;;;;;;;13.48;12.30;;;;;;;;;;5051317;28;20032;-78
2022/07/04 04:49:40;;;;;;;13.63;12.20;;;;;;;;;;5051584;28;20424;-78
2022/07/04 04:52:07;;;;;;;12.13;11.13;;;;;;;;;;5051643;28;20028;-78
2022/07/04 04:54:36;;;;;;;12.43;11.38;;;;;;;;;;5051391;28;20061;-78
2022/07/04 04:57:02;;;;;;;11.30;10.27;;;;;;;;;;5051303;28;20025;-77
2022/07/04 04:59:29;;;;;;;12.10;10.98;;;;;;;;;;5051255;28;20488;-77
2022/07/04 05:01:55;;;;;;;12.23;10.90;;;;;;;;;;5051596;28;20082;-77
2022/07/04 05:04:21;;;;;;;13.02;11.88;;;;;;;;;;5051326;28;20033;-77
2022/07/04 05:06:47;;;;;;;16.48;14.77;;;;;;;;;;5033670;28;20057;-77
2022/07/04 05:09:13;;;;;;;16.63;14.95;;;;;;;;;;5050916;28;20049;-77
2022/07/04 05:11:40;;;;;;;19.00;15.23;;;;;;;;;;5051379;28;20029;-77
2022/07/04 05:14:06;;;;;;;15.88;14.23;;;;;;;;;;5051609;28;20094;-75
2022/07/04 05:16:32;;;;;;;15.05;13.68;;;;;;;;;;5050897;28;20033;-77
2022/07/04 05:18:59;;;;;;;13.85;12.25;;;;;;;;;;5044834;28;20100;-76
2022/07/04 05:21:26;;;;;;;12.65;11.55;;;;;;;;;;5029777;28;20130;-78
2022/07/04 05:23:53;;;;;;;13.38;12.00;;;;;;;;;;5031151;28;20040;-78
2022/07/04 05:26:19;;;;;;;13.88;12.45;;;;;;;;;;5031097;28;20037;-78
2022/07/04 05:28:48;;;;;;;12.70;11.40;;;;;;;;;;5029832;28;20025;-78
2022/07/04 05:31:14;;;;;;;11.18;10.05;;;;;;;;;;5034679;28;20473;-81
2022/07/04 05:33:41;;;;;;;12.35;11.10;;;;;;;;;;5033959;28;20029;-81
2022/07/04 05:36:07;;;;;;;10.48;9.43;;;;;;;;;;5034499;28;20029;-80
2022/07/04 05:38:33;;;;;;;10.77;9.77;;;;;;;;;;5034344;28;20040;-81
2022/07/04 05:40:59;;;;;;;10.80;9.75;;;;;;;;;;5016834;28;20038;-81
2022/07/04 05:43:25;;;;;;;11.35;10.27;;;;;;;;;;5018278;28;20603;-81
2022/07/04 05:45:52;;;;;;;10.85;9.65;;;;;;;;;;5015200;28;20060;-82
2022/07/04 05:48:19;;;;;;;11.77;10.35;;;;;;;;;;5029480;28;20033;-82
2022/07/04 05:50:45;;;;;;;11.55;10.45;;;;;;;;;;5006547;28;20049;-80
2022/07/04 05:53:11;;;;;;;11.30;10.35;;;;;;;;;;5032957;28;20139;-81
2022/07/04 05:55:37;;;;;;;11.32;10.23;;;;;;;;;;5015096;28;20030;-82
2022/07/04 05:58:06;;;;;;;9.98;9.07;;;;;;;;;;5026773;28;20083;-80
2022/07/04 06:00:32;;;;;;;11.10;10.20;;;;;;;;;;5026637;28;20057;-79
2022/07/04 06:02:58;;;;;;;15.20;13.90;;;;;;;;;;5015123;28;20775;-78
2022/07/04 06:05:24;;;;;;;23.42;21.13;;;;;;;;;;5026582;28;20033;-80
2022/07/04 06:07:50;;;;;;;16.58;15.13;;;;;;;;;;5032725;28;20124;-80
2022/07/04 06:10:17;;;;;;;18.38;16.73;;;;;;;;;;5011592;28;20053;-79
2022/07/04 06:12:43;;;;;;;30.17;26.95;;;;;;;;;;5000968;28;20034;-80
2022/07/04 06:15:09;;;;;;;83.57;44.63;;;;;;;;;;4993870;28;20030;-78
2022/07/04 06:17:38;;;;;;;104.95;54.58;;;;;;;;;;4992383;28;20066;-79
2022/07/04 06:20:05;;;;;;;153.82;74.55;;;;;;;;;;5016945;28;20042;-79
2022/07/04 06:22:41;;;;;;;196.80;88.97;;;;;;;;;;5013491;28;20381;-79
2022/07/04 06:25:11;;;;;;;192.02;85.60;;;;;;;;;;5012868;28;20496;-81
2022/07/04 06:27:37;;;;;;;210.55;97.80;;;;;;;;;;4995609;28;20037;-81
2022/07/04 06:30:03;;;;;;;144.00;66.38;;;;;;;;;;5010881;28;20057;-79
2022/07/04 06:32:30;;;;;;;81.43;43.33;;;;;;;;;;5012563;28;20041;-82
2022/07/04 06:37:51;;;;;;;47.88;26.52;;;;;;;;;;4997612;28;20038;-82
2022/07/04 06:40:17;;;;;;;34.67;22.95;;;;;;;;;;5003581;28;20168;-81
2022/07/04 06:42:43;;;;;;;47.38;26.85;;;;;;;;;;5012455;28;20038;-81
2022/07/04 06:45:10;;;;;;;31.20;19.55;;;;;;;;;;5010845;28;20388;-79
2022/07/04 06:47:36;;;;;;;27.20;17.85;;;;;;;;;;5001461;28;20040;-79
2022/07/04 06:50:04;;;;;;;24.05;20.15;;;;;;;;;;5006291;28;20489;-79
2022/07/04 06:52:30;;;;;;;20.20;17.77;;;;;;;;;;5012160;28;20033;-80
2022/07/04 06:54:56;;;;;;;22.83;19.83;;;;;;;;;;5012504;28;20034;-78
2022/07/04 06:57:22;;;;;;;20.00;16.73;;;;;;;;;;5008620;28;20116;-80
2022/07/04 06:59:48;;;;;;;15.50;14.02;;;;;;;;;;5004152;28;20034;-79
2022/07/04 07:02:15;;;;;;;17.73;15.77;;;;;;;;;;4991827;28;20026;-79
2022/07/04 07:04:41;;;;;;;15.55;14.13;;;;;;;;;;4998035;28;20034;-79
2022/07/04 07:07:07;;;;;;;13.65;12.35;;;;;;;;;;5001303;28;20041;-80
2022/07/04 07:09:33;;;;;;;13.27;12.02;;;;;;;;;;4999760;28;20050;-80
2022/07/04 07:11:59;;;;;;;13.90;12.63;;;;;;;;;;5005037;28;20109;-78
2022/07/04 07:14:25;;;;;;;15.93;14.43;;;;;;;;;;4974706;28;20104;-82
2022/07/04 07:16:51;;;;;;;13.25;11.95;;;;;;;;;;5001272;28;20030;-81
2022/07/04 07:19:17;;;;;;;11.77;10.57;;;;;;;;;;5010799;28;20464;-78
2022/07/04 07:21:43;;;;;;;12.40;10.40;;;;;;;;;;4994084;28;20038;-77
2022/07/04 07:24:09;;;;;;;14.50;13.25;;;;;;;;;;4992265;28;20026;-80
2022/07/04 07:26:36;;;;;;;25.20;22.65;;;;;;;;;;5006312;28;20400;-78
2022/07/04 07:29:02;;;;;;;58.05;37.30;;;;;;;;;;4990183;28;20081;-79
2022/07/04 07:31:28;;;;;;;76.35;41.78;;;;;;;;;;4991099;28;20034;-80
2022/07/04 07:33:54;;;;;;;34.78;23.67;;;;;;;;;;4991871;28;20027;-79
2022/07/04 07:36:20;;;;;;;127.05;62.20;;;;;;;;;;4991572;28;20088;-79
2022/07/04 07:38:46;;;;;;;129.60;66.03;;;;;;;;;;4994028;28;20164;-80
2022/07/04 07:41:13;;;;;;;124.57;64.45;;;;;;;;;;5001001;28;20109;-82
2022/07/04 07:43:39;;;;;;;100.55;52.85;;;;;;;;;;5007831;28;20061;-79
2022/07/04 07:46:06;;;;;;;109.93;58.05;;;;;;;;;;5004610;28;20033;-80
2022/07/04 07:48:32;;;;;;;33.08;20.52;;;;;;;;;;4989859;28;20688;-78
2022/07/04 07:50:58;;;;;;;20.23;16.70;;;;;;;;;;5010740;28;20404;-80
2022/07/04 07:53:25;;;;;;;20.25;16.42;;;;;;;;;;5009073;28;20030;-81
2022/07/04 07:55:51;;;;;;;12.43;10.20;;;;;;;;;;4994934;28;20075;-78
2022/07/04 07:58:17;;;;;;;31.80;29.17;;;;;;;;;;4998258;28;20478;-78
2022/07/04 08:00:43;;;;;;;12.48;11.27;;;;;;;;;;5001895;28;20113;-78
2022/07/04 08:05:54;;;;;;;11.50;10.48;;;;;;;;;;5008813;28;20408;-78
2022/07/04 08:08:22;;;;;;;10.50;9.45;;;;;;;;;;5007058;28;20030;-81
2022/07/04 08:10:48;;;;;;;10.38;9.48;;;;;;;;;;4995215;28;20061;-78
2022/07/04 08:13:14;;;;;;;10.48;9.48;;;;;;;;;;4991915;28;20109;-80
2022/07/04 08:15:40;;;;;;;10.30;8.93;;;;;;;;;;4997137;28;20037;-80
2022/07/04 08:18:06;;;;;;;9.52;8.70;;;;;;;;;;5011182;28;20025;-77
2022/07/04 08:20:32;;;;;;;11.05;10.15;;;;;;;;;;5006700;28;20488;-79
2022/07/04 08:23:00;;;;;;;10.82;9.73;;;;;;;;;;4993295;28;20035;-80
2022/07/04 08:25:26;;;;;;;10.35;9.43;;;;;;;;;;4985539;28;20030;-76
2022/07/04 08:27:52;;;;;;;10.13;8.82;;;;;;;;;;5010980;28;20100;-83
2022/07/04 08:30:19;;;;;;;10.43;9.52;;;;;;;;;;5002690;28;20100;-80
2022/07/04 08:32:45;;;;;;;9.75;8.85;;;;;;;;;;4993050;28;20441;-80
2022/07/04 08:35:11;;;;;;;10.18;9.18;;;;;;;;;;4998055;28;20058;-77
2022/07/04 08:37:37;;;;;;;9.40;8.70;;;;;;;;;;5001039;28;20080;-77
2022/07/04 08:40:07;;;;;;;9.82;8.90;;;;;;;;;;5010722;28;20060;-77
2022/07/04 08:42:36;;;;;;;9.38;8.63;;;;;;;;;;5005490;28;20040;-75
2022/07/04 08:45:03;;;;;;;9.73;8.82;;;;;;;;;;5013950;28;20048;-76
2022/07/04 08:47:31;;;;;;;9.77;8.98;;;;;;;;;;5013951;28;20025;-77
2022/07/04 08:50:16;;;;;;;9.70;8.80;;;;;;;;;;5005563;28;20095;-77
2022/07/04 08:52:43;;;;;;;9.43;8.63;;;;;;;;;;5000629;28;20038;-77
2022/07/04 09:00:41;;;;;;;11.30;10.05;;;;;;;;;;5025365;28;20071;-75
2022/07/04 09:03:08;;;;;;;10.55;9.55;;;;;;;;;;5013246;28;20033;-76
2022/07/04 09:05:35;;;;;;;9.77;8.88;;;;;;;;;;5027889;28;20036;-79
2022/07/04 09:08:01;;;;;;;10.82;9.80;;;;;;;;;;5016333;28;20030;-77
2022/07/04 09:10:28;;;;;;;27.63;18.77;;;;;;;;;;5010998;28;20045;-80
2022/07/04 09:12:54;;;;;;;40.15;24.80;;;;;;;;;;5007867;28;20397;-80
2022/07/04 09:15:20;;;;;;;22.33;15.30;;;;;;;;;;4996883;28;20068;-79
2022/07/04 09:17:46;;;;;;;25.52;17.80;;;;;;;;;;5012350;28;20056;-82
2022/07/04 09:20:16;;;;;;;61.70;33.42;;;;;;;;;;5007510;28;20504;-77
2022/07/04 09:22:43;;;;;;;11.90;10.55;;;;;;;;;;5008571;28;20037;-78
2022/07/04 09:25:12;;;;;;;9.43;8.63;;;;;;;;;;5010535;28;20441;-78
2022/07/04 09:27:40;;;;;;;10.05;9.02;;;;;;;;;;5012916;28;20024;-78
2022/07/04 09:30:06;;;;;;;10.18;9.10;;;;;;;;;;5013391;28;20036;-79
2022/07/04 09:32:37;;;;;;;24.45;21.85;;;;;;;;;;4994169;28;20358;-79
2022/07/04 09:35:04;;;;;;;9.65;8.75;;;;;;;;;;5011798;28;20034;-76
2022/07/04 09:37:38;;;;;;;11.48;10.57;;;;;;;;;;5001925;28;20027;-77
2022/07/04 09:40:04;;;;;;;;;;;;;;;;;;4999100;28;20501;-77
2022/07/04 09:42:48;;;;;;;9.50;8.35;;;;;;;;;;5008936;28;19906;-77
2022/07/04 09:45:14;;;;;;;9.45;8.60;;;;;;;;;;4995610;28;20034;-77
2022/07/04 09:47:41;;;;;;;9.48;8.68;;;;;;;;;;4978679;28;20030;-78
2022/07/04 09:50:13;;;;;;;11.88;10.32;;;;;;;;;;4994103;28;20054;-77
2022/07/04 09:52:47;;;;;;;14.32;12.90;;;;;;;;;;4994384;28;20033;-76
2022/07/04 09:55:13;;;;;;;9.18;8.43;;;;;;;;;;4999958;28;20026;-75
2022/07/04 09:57:44;;;;;;;9.40;8.40;;;;;;;;;;5013306;28;20034;-79
2022/07/04 10:00:32;;;;;;;9.10;8.25;;;;;;;;;;5013190;28;20044;-77
2022/07/04 10:03:15;;;;;;;7.72;7.13;;;;;;;;;;5012666;28;20436;-80
2022/07/04 10:05:41;;;;;;;7.13;6.45;;;;;;;;;;4991735;28;20052;-76
2022/07/04 10:08:08;;;;;;;7.85;7.25;;;;;;;;;;5006229;28;20033;-78
2022/07/04 10:10:37;;;;;;;7.88;7.18;;;;;;;;;;5032308;28;20045;-76
2022/07/04 10:13:08;;;;;;;7.70;7.05;;;;;;;;;;5022000;28;20044;-78
2022/07/04 10:15:36;;;;;;;14.27;8.30;;;;;;;;;;5032097;28;20041;-76
2022/07/04 10:18:03;;;;;;;10.15;9.27;;;;;;;;;;5021813;28;20044;-77
2022/07/04 10:20:29;;;;;;;8.18;7.47;;;;;;;;;;5045168;28;20094;-77
2022/07/04 10:22:58;;;;;;;7.72;7.00;;;;;;;;;;5032752;28;20025;-78
2022/07/04 10:25:25;;;;;;;8.05;7.35;;;;;;;;;;5026616;28;20037;-76
2022/07/04 10:27:51;;;;;;;10.15;9.32;;;;;;;;;;5020867;28;20039;-67
2022/07/04 10:30:23;;;;;;;9.38;8.57;;;;;;;;;;5052733;28;20072;-76
2022/07/04 10:32:50;;;;;;;7.63;6.82;;;;;;;;;;5034468;28;20080;-76
2022/07/04 10:35:16;;;;;;;8.95;8.10;;;;;;;;;;5036882;28;20060;-79
2022/07/04 10:38:18;;;;;;;7.78;7.07;;;;;;;;;;5012980;28;20022;-78
2022/07/04 10:40:52;;;;;;;8.20;7.47;;;;;;;;;;4913878;29;20084;-76
2022/07/04 10:45:56;;;;;;;7.45;6.78;;;;;;;;;;4924242;29;20035;-75
2022/07/04 10:48:23;;;;;;;7.30;6.60;;;;;;;;;;4942127;28;20108;-76
2022/07/04 10:51:08;;;;;;;10.45;9.38;;;;;;;;;;5015785;28;20033;-77
2022/07/04 10:53:54;;;;;;;9.32;8.48;;;;;;;;;;5052579;28;20132;-76
2022/07/04 10:56:20;;;;;;;7.13;6.53;;;;;;;;;;5026566;28;20029;-77
2022/07/04 10:58:46;;;;;;;7.97;7.15;;;;;;;;;;5024750;28;20474;-76
2022/07/04 11:01:13;;;;;;;7.90;7.30;;;;;;;;;;5032236;28;20025;-77
2022/07/04 11:03:46;;;;;;;7.57;7.00;;;;;;;;;;5032532;28;20030;-78
2022/07/04 11:06:31;;;;;;;8.00;7.30;;;;;;;;;;5011631;28;20041;-76
2022/07/04 11:09:15;;;;;;;7.97;7.28;;;;;;;;;;5011989;28;20138;-78
2022/07/04 11:12:07;;;;;;;8.18;7.55;;;;;;;;;;5012104;28;20045;-77
2022/07/04 11:14:40;;;;;;;7.30;6.60;;;;;;;;;;5011214;28;20456;-78
2022/07/04 11:17:06;;;;;;;6.88;6.38;;;;;;;;;;5023919;28;20057;-78
2022/07/04 11:19:33;;;;;;;6.80;6.20;;;;;;;;;;5027418;28;20040;-77
2022/07/04 11:21:59;;;;;;;8.00;7.30;;;;;;;;;;5022051;28;20095;-76
2022/07/04 11:24:26;;;;;;;8.05;7.00;;;;;;;;;;5031904;28;20034;-77
2022/07/04 11:26:52;;;;;;;6.97;6.28;;;;;;;;;;5024391;28;20530;-76
2022/07/04 11:29:18;;;;;;;7.90;7.03;;;;;;;;;;5027520;28;20033;-77
2022/07/04 11:31:45;;;;;;;7.32;6.63;;;;;;;;;;5030084;28;20041;-76
2022/07/04 11:34:12;;;;;;;7.22;6.40;;;;;;;;;;5029153;28;20025;-75
2022/07/04 11:36:39;;;;;;;10.52;6.40;;;;;;;;;;5023998;28;20485;-77
2022/07/04 11:39:09;;;;;;;6.75;6.25;;;;;;;;;;5027566;28;20033;-77
2022/07/04 11:47:15;;;;;;;10.52;9.43;;;;;;;;;;5026845;28;20044;-76
2022/07/04 11:49:51;;;;;;;15.20;13.50;;;;;;;;;;5022067;28;20105;-77
2022/07/04 11:52:19;;;;;;;17.30;15.82;;;;;;;;;;5012212;28;20149;-78
2022/07/04 11:54:45;;;;;;;8.00;7.20;;;;;;;;;;5022062;28;20021;-76
2022/07/04 11:57:16;;;;;;;17.83;11.95;;;;;;;;;;5021688;28;20404;-77
2022/07/04 11:59:43;;;;;;;9.43;7.95;;;;;;;;;;5007182;28;20068;-78
2022/07/04 12:02:16;;;;;;;11.35;10.20;;;;;;;;;;5025346;28;20030;-78
2022/07/04 12:04:42;;;;;;;8.75;6.85;;;;;;;;;;5021316;28;20063;-79
2022/07/04 12:07:15;;;;;;;7.03;6.40;;;;;;;;;;5025083;28;20037;-75
2022/07/04 12:09:42;;;;;;;7.18;6.53;;;;;;;;;;5023967;28;20501;-76
2022/07/04 12:12:09;;;;;;;8.02;7.32;;;;;;;;;;5017728;28;20033;-78
2022/07/04 12:14:35;;;;;;;7.65;6.22;;;;;;;;;;5012767;28;20030;-78
2022/07/04 12:17:19;;;;;;;7.72;7.05;;;;;;;;;;5020864;28;20488;-77
2022/07/04 12:19:52;;;;;;;6.38;5.60;;;;;;;;;;5031851;28;20037;-78
2022/07/04 12:22:36;;;;;;;9.80;6.65;;;;;;;;;;5030405;28;20025;-76
2022/07/04 12:25:04;;;;;;;7.78;6.13;;;;;;;;;;5028642;28;20025;-76
2022/07/04 12:27:30;;;;;;;16.13;14.70;;;;;;;;;;5024115;28;20029;-75
2022/07/04 12:29:57;;;;;;;9.32;7.75;;;;;;;;;;5029998;28;20040;-79
2022/07/04 12:32:24;;;;;;;7.00;5.80;;;;;;;;;;5027536;28;20112;-76
2022/07/04 12:34:50;;;;;;;6.43;5.63;;;;;;;;;;5031015;28;20025;-75
2022/07/04 12:37:16;;;;;;;7.47;5.18;;;;;;;;;;5031513;28;20048;-77
2022/07/04 12:39:44;;;;;;;6.18;5.65;;;;;;;;;;5027260;28;20067;-75
2022/07/04 12:42:19;;;;;;;7.65;6.75;;;;;;;;;;5031147;28;20083;-76
2022/07/04 12:44:45;;;;;;;6.95;5.63;;;;;;;;;;5034003;28;20091;-76
2022/07/04 12:47:12;;;;;;;7.60;6.00;;;;;;;;;;5035298;28;20033;-76
2022/07/04 12:49:43;;;;;;;6.88;6.25;;;;;;;;;;5032512;28;20044;-77
2022/07/04 12:52:10;;;;;;;7.93;7.20;;;;;;;;;;5030980;28;20036;-76
2022/07/04 12:54:38;;;;;;;44.20;40.63;;;;;;;;;;5029777;28;20029;-76
2022/07/04 12:57:12;;;;;;;8.02;7.22;;;;;;;;;;5034156;28;20448;-78
2022/07/04 12:59:39;;;;;;;7.82;6.57;;;;;;;;;;5026555;28;20624;-79
2022/07/04 13:02:06;;;;;;;16.40;11.52;;;;;;;;;;5028268;28;20358;-77
2022/07/04 13:04:33;;;;;;;8.02;6.28;;;;;;;;;;5021610;28;20029;-77
2022/07/04 13:06:59;;;;;;;6.65;6.13;;;;;;;;;;5035595;28;20026;-78
2022/07/04 13:09:26;;;;;;;6.38;5.88;;;;;;;;;;5035384;28;20057;-79
2022/07/04 13:14:37;;;;;;;7.60;6.95;;;;;;;;;;5015341;28;20084;-77
2022/07/04 13:17:04;;;;;;;11.13;6.80;;;;;;;;;;5015061;28;20488;-77
2022/07/04 13:19:30;;;;;;;8.20;6.43;;;;;;;;;;5015028;28;20045;-78
2022/07/04 13:21:56;;;;;;;7.03;6.40;;;;;;;;;;5014758;28;20026;-78
2022/07/04 13:24:22;;;;;;;7.68;6.10;;;;;;;;;;5015610;28;20480;-77
2022/07/04 13:26:48;;;;;;;8.23;7.47;;;;;;;;;;4997467;28;20444;-81
2022/07/04 13:29:14;;;;;;;9.80;6.30;;;;;;;;;;4997882;28;20084;-79
2022/07/04 13:31:41;;;;;;;8.40;6.85;;;;;;;;;;5014563;28;20046;-78
2022/07/04 13:34:07;;;;;;;9.00;8.15;;;;;;;;;;5015220;28;20041;-78
2022/07/04 13:36:33;;;;;;;7.25;6.68;;;;;;;;;;5015303;28;20109;-78
2022/07/04 13:38:59;;;;;;;7.85;7.05;;;;;;;;;;5014977;28;20481;-78
2022/07/04 13:41:25;;;;;;;12.90;8.95;;;;;;;;;;5014835;28;20034;-78
2022/07/04 13:43:51;;;;;;;8.25;7.28;;;;;;;;;;5015237;28;20512;-78
2022/07/04 13:46:17;;;;;;;8.30;7.45;;;;;;;;;;5015759;28;20461;-81
2022/07/04 13:48:43;;;;;;;7.68;6.38;;;;;;;;;;4997236;28;20473;-78
2022/07/04 13:51:09;;;;;;;6.78;5.70;;;;;;;;;;5014506;28;20489;-78
2022/07/04 13:53:36;;;;;;;8.98;8.07;;;;;;;;;;5015108;28;20026;-78
2022/07/04 13:56:04;;;;;;;8.88;6.50;;;;;;;;;;4996781;28;20124;-78
2022/07/04 13:58:30;;;;;;;8.52;6.45;;;;;;;;;;5014985;28;20123;-77
2022/07/04 14:00:56;;;;;;;7.05;6.45;;;;;;;;;;4997305;28;20057;-80
2022/07/04 14:03:22;;;;;;;6.25;5.72;;;;;;;;;;5014865;28;20030;-78
2022/07/04 14:05:48;;;;;;;6.55;5.90;;;;;;;;;;5014512;28;20472;-79
2022/07/04 14:08:14;;;;;;;6.97;6.38;;;;;;;;;;4997227;28;20100;-79
2022/07/04 14:10:41;;;;;;;5.80;5.25;;;;;;;;;;5013751;28;20488;-77
2022/07/04 14:13:07;;;;;;;6.55;5.95;;;;;;;;;;5014906;28;20045;-77
2022/07/04 14:15:33;;;;;;;9.02;8.07;;;;;;;;;;5014788;28;20029;-78
2022/07/04 14:17:59;;;;;;;6.18;5.57;;;;;;;;;;5014051;28;20500;-77
2022/07/04 14:20:25;;;;;;;6.03;5.50;;;;;;;;;;5014597;28;20030;-78
2022/07/04 14:22:51;;;;;;;5.55;5.10;;;;;;;;;;5013649;28;20061;-79
2022/07/04 14:25:17;;;;;;;6.38;5.78;;;;;;;;;;5013861;28;20752;-77
2022/07/04 14:27:43;;;;;;;6.75;5.95;;;;;;;;;;5014013;28;20037;-78
2022/07/04 14:30:10;;;;;;;6.32;5.72;;;;;;;;;;5014182;28;20109;-78
2022/07/04 14:32:36;;;;;;;7.32;5.82;;;;;;;;;;5014031;28;20033;-76
2022/07/04 14:35:02;;;;;;;7.97;7.18;;;;;;;;;;5013513;28;20030;-77
2022/07/04 14:37:28;;;;;;;7.07;6.10;;;;;;;;;;5013040;28;20029;-77
2022/07/04 14:39:54;;;;;;;12.05;10.65;;;;;;;;;;5013675;28;20041;-76
2022/07/04 14:42:20;;;;;;;9.23;8.23;;;;;;;;;;5012327;28;20044;-76
2022/07/04 14:44:46;;;;;;;8.70;7.90;;;;;;;;;;5013979;28;20032;-76
2022/07/04 14:47:12;;;;;;;11.38;10.38;;;;;;;;;;5013776;28;20025;-76
2022/07/04 14:49:39;;;;;;;7.60;7.00;;;;;;;;;;5013163;28;20026;-76
2022/07/04 14:52:05;;;;;;;7.75;6.38;;;;;;;;;;5013377;28;20630;-76